Portada
METAR-TAF:

METAR-TAF

Aeroports :

Matagami, Quebec, Canadà

latitud: 49-46N, longitud: 077-49W, altitud: 281 m

Observació

L'informe es va fer fa 59 minuts, a les 19:00 UTC
Vent 12 kt del Nord-Oest amb ràfegues de 18 kt
Temperatura 14°C
Humitat 67%
Pressió 1016 hPa
Visibilitat: 14.5 km
Núvols disperses a una alçada de 2900 ft
Cel ennuvolat a una alçada de 7000 ft
Cel ennuvolat a una alçada de 11000 ft

METAR: CYNM 151900Z AUTO 31012G18KT 9SM SCT029 BKN070 BKN110 14/08 A3000 RMK SLP169

Hora: 15:59 (19:59 UTC)


TAF: manca

Observacions i pronòstics meteorològics de més de 4000 aeroports (METAR i TAF).

Les estacions disponibles són els punts grocs i vermells al mapa.

Posi el ratolí al punt desitjat per veure el nom de l'estació.

Feu clic per veure les observacions i els pronòstics meteorològics.

Per canviar el mapa: feu clic els botons verds amb una creu de color negre per apropar; al botó verd amb un guió per allunyar la imatge; o en les fletxes verdes per a mapes adjacents.


METAR-TAF: